Time;durP1;ratioP1;P1;durP2;ratioP2;P2;SDS_P1;SDS_P2;PMS_P1;PMS_P2;Temp;Humidity;BMP_temperature;BMP_pressure;BME280_temperature;BME280_humidity;BME280_pressure;Samples;Min_cycle;Max_cycle;Signal;HPM_P1;HPM_P2
2023/04/12 00:01:18;;;;;;;6.03;4.00;;;;;;;15.56;52.38;100765.34;4989250;28;20220;-80
2023/04/12 00:03:49;;;;;;;4.50;4.07;;;;;;;15.63;53.06;100770.03;5018195;28;20594;-81
2023/04/12 00:06:16;;;;;;;8.27;4.63;;;;;;;15.58;52.89;100766.03;5024447;28;20064;-79
2023/04/12 00:08:46;;;;;;;8.40;4.30;;;;;;;15.68;53.00;100781.94;5010027;28;20126;-81
2023/04/12 00:11:20;;;;;;;8.80;5.18;;;;;;;15.54;53.33;100767.34;5002980;28;20115;-81
2023/04/12 00:13:51;;;;;;;6.35;4.07;;;;;;;15.71;52.75;100778.09;5004429;28;20180;-81
2023/04/12 00:16:21;;;;;;;4.53;4.05;;;;;;;15.78;53.00;100768.41;4999443;28;20305;-80
2023/04/12 00:18:50;;;;;;;4.88;4.30;;;;;;;15.67;53.63;100772.19;4984034;28;20088;-81
2023/04/12 00:21:18;;;;;;;4.75;4.30;;;;;;;15.59;53.64;100756.97;5007669;28;20041;-80
2023/04/12 00:23:53;;;;;;;5.97;4.32;;;;;;;15.25;53.64;100708.13;5007587;28;20091;-80
2023/04/12 00:26:24;;;;;;;5.22;4.60;;;;;;;15.49;53.65;100748.28;5003915;28;20235;-80
2023/04/12 00:28:57;;;;;;;6.75;4.50;;;;;;;15.44;54.03;100739.91;4988545;28;20065;-80
2023/04/12 00:31:28;;;;;;;7.78;4.32;;;;;;;15.44;54.33;100745.25;4996439;28;20045;-81
2023/04/12 00:33:55;;;;;;;5.75;4.70;;;;;;;15.45;54.54;100754.94;4996131;28;20493;-80
2023/04/12 00:36:24;;;;;;;9.50;4.30;;;;;;;15.30;54.34;100732.53;5006466;28;20431;-81
2023/04/12 00:38:57;;;;;;;4.32;3.92;;;;;;;15.42;54.66;100752.59;5005103;28;20049;-80
2023/04/12 00:41:28;;;;;;;8.48;4.32;;;;;;;15.33;54.48;100721.50;4999827;28;20042;-82
2023/04/12 00:43:55;;;;;;;6.05;4.43;;;;;;;15.17;54.44;100691.06;5001684;28;20093;-80
2023/04/12 00:46:22;;;;;;;8.80;4.10;;;;;;;15.21;54.65;100701.41;4989988;28;20092;-82
2023/04/12 00:48:52;;;;;;;6.88;4.30;;;;;;;15.45;54.27;100738.91;4980458;28;20057;-79
2023/04/12 00:51:36;;;;;;;7.05;4.47;;;;;;;15.45;54.20;100741.56;5002308;28;20077;-81
2023/04/12 00:54:16;;;;;;;4.63;4.20;;;;;;;15.31;54.39;100697.56;4977464;28;20093;-82
2023/04/12 00:56:47;;;;;;;4.88;3.58;;;;;;;15.39;54.65;100710.16;4979557;28;20346;-80
2023/04/12 00:59:17;;;;;;;6.10;4.53;;;;;;;15.43;54.36;100711.47;5006165;28;20107;-80
2023/04/12 01:01:44;;;;;;;5.28;4.10;;;;;;;15.33;54.69;100698.25;4999261;28;20427;-82
2023/04/12 01:04:17;;;;;;;5.65;5.05;;;;;;;15.26;54.71;100693.72;5016363;28;20208;-80
2023/04/12 01:06:58;;;;;;;7.32;4.53;;;;;;;15.31;55.57;100718.97;5021435;28;20073;-80
2023/04/12 01:09:34;;;;;;;6.20;4.43;;;;;;;15.22;55.69;100713.75;5017716;28;20052;-81
2023/04/12 01:13:03;;;;;;;4.57;4.18;;;;;;;15.06;56.20;100688.66;5007515;28;20045;-81
2023/04/12 01:15:36;;;;;;;6.95;4.22;;;;;;;14.83;56.00;100651.03;4918962;29;20055;-81
2023/04/12 01:18:12;;;;;;;6.75;4.85;;;;;;;15.14;56.23;100712.75;4919416;29;20059;-81
2023/04/12 01:21:05;;;;;;;5.63;4.45;;;;;;;15.02;56.11;100703.34;4969835;28;20050;-80
2023/04/12 01:24:13;;;;;;;6.50;4.47;;;;;;;15.14;56.16;100711.91;4979263;28;20045;-81
2023/04/12 01:27:00;;;;;;;6.68;4.68;;;;;;;15.20;55.49;100710.44;4978094;28;20041;-80
2023/04/12 01:29:29;;;;;;;8.77;4.38;;;;;;;14.86;55.78;100665.91;4985200;28;20567;-82
2023/04/12 01:32:11;;;;;;;7.70;4.57;;;;;;;15.12;55.89;100720.13;4982976;28;20217;-81
2023/04/12 01:34:45;;;;;;;6.22;4.47;;;;;;;15.03;56.26;100726.44;4986333;28;20054;-80
2023/04/12 01:37:20;;;;;;;6.90;4.88;;;;;;;15.05;56.34;100736.94;4986726;28;20045;-81
2023/04/12 01:39:47;;;;;;;5.65;4.43;;;;;;;15.04;56.80;100738.78;4984595;28;20046;-81
2023/04/12 01:42:19;;;;;;;7.10;4.85;;;;;;;15.25;55.89;100733.00;4988819;28;20107;-82
2023/04/12 01:44:46;;;;;;;;;;;;;;;15.11;56.62;100742.50;4997999;28;20053;-80
2023/04/12 01:47:15;;;;;;;6.00;4.13;;;;;;;15.14;55.56;100734.13;4997507;28;19927;-82
2023/04/12 01:50:22;;;;;;;7.28;4.25;;;;;;;15.02;56.41;100707.88;4997962;28;20046;-81
2023/04/12 01:53:13;;;;;;;4.95;4.45;;;;;;;15.14;56.30;100728.78;4980421;28;20057;-82
2023/04/12 01:56:03;;;;;;;5.00;4.47;;;;;;;15.16;55.91;100716.09;4998647;28;20045;-82
2023/04/12 01:58:30;;;;;;;4.80;4.22;;;;;;;15.20;55.59;100710.44;4984209;28;20041;-82
2023/04/12 02:00:59;;;;;;;5.68;4.40;;;;;;;15.40;55.21;100717.16;5006083;28;20131;-81
2023/04/12 02:03:30;;;;;;;6.30;4.57;;;;;;;15.31;55.55;100728.84;5008512;28;20477;-80
2023/04/12 02:05:58;;;;;;;8.63;5.10;;;;;;;14.57;56.07;100629.75;5003873;28;20056;-81
2023/04/12 02:08:28;;;;;;;6.50;4.60;;;;;;;14.52;56.29;100627.53;4992728;28;20564;-81
2023/04/12 02:10:55;;;;;;;6.18;4.70;;;;;;;14.69;56.52;100660.50;5004679;28;20046;-82
2023/04/12 02:13:22;;;;;;;7.18;4.70;;;;;;;15.01;56.45;100709.72;4986896;28;20037;-81
2023/04/12 02:15:49;;;;;;;8.88;6.07;;;;;;;14.92;56.39;100708.00;4985018;28;20111;-83
2023/04/12 02:18:18;;;;;;;10.90;6.53;;;;;;;14.92;56.47;100721.38;4976110;28;20549;-83
2023/04/12 02:20:45;;;;;;;9.80;5.97;;;;;;;14.44;56.94;100664.03;4980866;28;20401;-80
2023/04/12 02:23:15;;;;;;;7.00;5.95;;;;;;;14.69;56.83;100719.28;4976429;28;20065;-81
2023/04/12 02:25:42;;;;;;;9.75;5.88;;;;;;;14.53;57.02;100712.03;4971962;28;20272;-82
2023/04/12 02:28:09;;;;;;;6.72;5.18;;;;;;;14.06;56.98;100628.81;4985969;28;20096;-81
2023/04/12 02:30:46;;;;;;;10.00;6.78;;;;;;;14.51;56.93;100705.13;4973613;28;20045;-82
2023/04/12 02:33:24;;;;;;;7.18;6.40;;;;;;;13.89;57.42;100631.38;4976532;28;20088;-81
2023/04/12 02:35:52;;;;;;;10.10;6.88;;;;;;;14.17;57.89;100703.28;4981192;28;20045;-82
2023/04/12 02:38:23;;;;;;;10.55;7.68;;;;;;;13.97;58.20;100659.94;4979231;28;20497;-82
2023/04/12 02:40:50;;;;;;;12.45;8.75;;;;;;;14.06;58.81;100696.38;4989028;28;20715;-81
2023/04/12 02:43:17;;;;;;;13.73;9.20;;;;;;;14.23;58.48;100734.69;4995698;28;20107;-83
2023/04/12 02:45:45;;;;;;;13.85;10.88;;;;;;;14.05;59.14;100717.88;4994684;28;20145;-82
2023/04/12 02:48:12;;;;;;;12.20;10.85;;;;;;;13.90;59.10;100705.09;5003286;28;20455;-82
2023/04/12 02:50:46;;;;;;;12.60;10.50;;;;;;;13.60;59.83;100665.53;4993333;28;20402;-83
2023/04/12 02:53:14;;;;;;;12.55;10.13;;;;;;;13.79;59.76;100704.53;5002386;28;20050;-81
2023/04/12 02:55:46;;;;;;;15.27;11.63;;;;;;;13.83;60.41;100722.72;4968090;28;20056;-81
2023/04/12 02:58:23;;;;;;;11.93;10.68;;;;;;;13.50;60.47;100672.78;5007669;28;20125;-79
2023/04/12 03:00:50;;;;;;;15.85;10.60;;;;;;;13.61;60.51;100693.88;5012776;28;20110;-80
2023/04/12 03:03:20;;;;;;;16.23;11.32;;;;;;;13.62;61.25;100706.22;4995306;28;20060;-83
2023/04/12 03:06:08;;;;;;;15.70;11.40;;;;;;;13.62;61.05;100706.22;5008254;28;20491;-80
2023/04/12 03:08:45;;;;;;;14.45;11.77;;;;;;;13.23;61.53;100655.84;5004477;28;20052;-81
2023/04/12 03:11:18;;;;;;;21.08;14.68;;;;;;;13.24;61.33;100657.50;5010744;28;20061;-83
2023/04/12 03:13:48;;;;;;;19.48;12.27;;;;;;;13.44;61.11;100701.72;4979457;28;20045;-84
2023/04/12 03:16:28;;;;;;;15.85;13.35;;;;;;;13.34;61.82;100684.97;4995212;28;20072;-81
2023/04/12 03:18:55;;;;;;;19.67;14.40;;;;;;;13.22;62.02;100697.63;4994269;28;20362;-83
2023/04/12 03:21:27;;;;;;;17.42;14.27;;;;;;;13.11;62.58;100683.72;4991999;28;20111;-83
2023/04/12 03:23:56;;;;;;;17.92;13.85;;;;;;;13.05;62.39;100691.28;4995568;28;20049;-82
2023/04/12 03:26:25;;;;;;;17.10;13.90;;;;;;;12.95;62.32;100674.53;5003470;28;20055;-83
2023/04/12 03:29:08;;;;;;;22.42;14.45;;;;;;;12.75;62.97;100647.19;5018091;28;20074;-80
2023/04/12 03:31:45;;;;;;;18.67;14.57;;;;;;;12.96;63.04;100680.69;5018685;28;20119;-80
2023/04/12 03:34:12;;;;;;;23.30;15.63;;;;;;;12.93;63.64;100676.50;4998745;28;20045;-82
2023/04/12 03:36:40;;;;;;;17.92;15.02;;;;;;;12.75;64.47;100647.19;4994149;28;20889;-82
2023/04/12 03:39:09;;;;;;;19.90;15.40;;;;;;;12.70;65.18;100648.63;5008207;28;20102;-83
2023/04/12 03:41:36;;;;;;;20.05;14.23;;;;;;;12.74;64.72;100655.31;5012190;28;20108;-82
2023/04/12 03:44:06;;;;;;;19.33;14.82;;;;;;;12.75;64.54;100667.66;5002273;28;20079;-83
2023/04/12 03:46:41;;;;;;;22.05;15.63;;;;;;;12.55;64.66;100629.66;5024748;28;20052;-82
2023/04/12 03:49:20;;;;;;;22.95;15.80;;;;;;;12.67;64.38;100648.91;5013686;28;20049;-82
2023/04/12 03:51:49;;;;;;;22.42;16.00;;;;;;;12.79;64.92;100677.00;4989710;28;20167;-83
2023/04/12 03:54:19;;;;;;;21.27;15.70;;;;;;;12.71;65.25;100677.75;4978316;28;20559;-81
2023/04/12 03:56:48;;;;;;;21.30;16.88;;;;;;;12.53;65.81;100658.25;4977147;28;20050;-82
2023/04/12 03:59:15;;;;;;;22.83;15.57;;;;;;;12.35;66.46;100628.88;4983115;28;20049;-82
2023/04/12 04:01:49;;;;;;;22.00;15.93;;;;;;;12.49;66.56;100636.38;4979715;28;20060;-84
2023/04/12 04:04:17;;;;;;;23.55;15.80;;;;;;;12.51;66.60;100642.41;4980315;28;20112;-80
2023/04/12 04:06:54;;;;;;;21.42;16.55;;;;;;;12.54;66.40;100636.78;4981067;28;20825;-80
2023/04/12 04:09:22;;;;;;;18.92;15.05;;;;;;;12.73;66.41;100664.31;4996157;28;20049;-81
2023/04/12 04:11:51;;;;;;;20.85;16.95;;;;;;;12.48;66.46;100618.75;4997246;28;20064;-80
2023/04/12 04:14:18;;;;;;;23.50;17.40;;;;;;;12.51;67.30;100633.59;5001595;28;20510;-80
2023/04/12 04:16:45;;;;;;;21.30;16.63;;;;;;;12.47;67.73;100637.53;5008097;28;20411;-80
2023/04/12 04:19:12;;;;;;;24.60;17.77;;;;;;;12.65;67.55;100664.22;5005838;28;20407;-81
2023/04/12 04:21:42;;;;;;;20.42;16.73;;;;;;;12.50;67.97;100638.09;5004542;28;20131;-81
2023/04/12 04:24:10;;;;;;;23.75;17.15;;;;;;;12.61;67.72;100651.19;5008503;28;20055;-82
2023/04/12 04:26:42;;;;;;;22.15;17.02;;;;;;;12.45;68.14;100629.72;5004463;28;20053;-82
2023/04/12 04:29:10;;;;;;;23.50;17.80;;;;;;;12.22;67.97;100581.31;4998253;28;20347;-79
2023/04/12 04:31:41;;;;;;;22.23;16.95;;;;;;;12.73;68.22;100669.63;4992796;28;20056;-81
2023/04/12 04:34:08;;;;;;;24.02;17.25;;;;;;;12.51;68.54;100631.75;4988640;28;20044;-82
2023/04/12 04:36:40;;;;;;;24.77;18.77;;;;;;;12.70;69.19;100672.59;4992506;28;20504;-83
2023/04/12 04:39:07;;;;;;;23.02;18.58;;;;;;;12.42;69.62;100627.31;4992081;28;20073;-83
2023/04/12 04:41:38;;;;;;;25.17;18.60;;;;;;;12.49;69.47;100636.38;4996583;28;20053;-81
2023/04/12 04:44:12;;;;;;;23.33;17.85;;;;;;;12.41;69.98;100628.31;4989931;28;20064;-82
2023/04/12 04:46:42;;;;;;;25.20;19.45;;;;;;;11.95;69.96;100563.53;5003354;28;20080;-82
2023/04/12 04:49:09;;;;;;;29.52;18.63;;;;;;;12.71;69.93;100682.25;4982225;28;20159;-82
2023/04/12 04:51:37;;;;;;;29.45;20.15;;;;;;;12.59;70.00;100655.81;4995641;28;20088;-82
2023/04/12 04:54:04;;;;;;;25.17;18.65;;;;;;;12.65;70.03;100667.72;5000747;28;20053;-84
2023/04/12 04:56:31;;;;;;;26.17;18.35;;;;;;;12.48;70.12;100640.06;4997051;28;20045;-82
2023/04/12 04:58:58;;;;;;;28.30;19.08;;;;;;;12.72;70.36;100667.94;5001314;28;20419;-82
2023/04/12 05:01:26;;;;;;;24.58;19.23;;;;;;;12.73;70.40;100665.13;5000010;28;20041;-81
2023/04/12 05:03:57;;;;;;;35.60;27.42;;;;;;;12.72;70.68;100668.81;5016235;28;20098;-82
2023/04/12 05:06:30;;;;;;;24.45;19.15;;;;;;;12.57;70.23;100644.50;5005466;28;20617;-81
2023/04/12 05:08:56;;;;;;;28.65;19.45;;;;;;;12.77;70.55;100668.34;4994541;28;20053;-81
2023/04/12 05:11:27;;;;;;;26.05;17.95;;;;;;;12.66;71.21;100636.59;5007730;28;20049;-82
2023/04/12 05:13:59;;;;;;;27.15;19.50;;;;;;;12.80;71.41;100649.41;4985465;28;20049;-81
2023/04/12 05:16:26;;;;;;;25.90;18.33;;;;;;;12.60;71.73;100603.41;5027013;28;20836;-81
2023/04/12 05:18:58;;;;;;;26.52;20.17;;;;;;;13.00;71.59;100650.94;4994550;28;20053;-82
2023/04/12 05:21:26;;;;;;;29.83;21.02;;;;;;;12.86;71.51;100600.84;4992548;28;20063;-80
2023/04/12 05:23:55;;;;;;;28.80;19.55;;;;;;;13.11;72.51;100646.41;5024338;28;20053;-80
2023/04/12 05:26:24;;;;;;;28.42;20.55;;;;;;;12.37;72.73;100517.78;4996966;28;20227;-81
2023/04/12 05:28:58;;;;;;;36.45;20.52;;;;;;;13.01;72.44;100617.13;5007338;28;20045;-79
2023/04/12 05:31:24;;;;;;;28.05;20.60;;;;;;;13.11;71.74;100619.75;5014750;28;20053;-81
2023/04/12 05:33:53;;;;;;;32.03;22.45;;;;;;;13.28;72.28;100642.94;5021836;28;20052;-78
2023/04/12 05:36:20;;;;;;;35.92;23.73;;;;;;;13.11;73.86;100622.41;5012728;28;20394;-81
2023/04/12 05:38:51;;;;;;;30.83;21.23;;;;;;;13.06;74.68;100633.53;4995479;28;20053;-79
2023/04/12 05:41:18;;;;;;;34.63;23.55;;;;;;;13.04;74.09;100611.53;4984317;28;20049;-81
2023/04/12 05:43:46;;;;;;;30.98;22.08;;;;;;;13.16;74.29;100638.78;4988820;28;20048;-81
2023/04/12 05:46:20;;;;;;;33.47;24.00;;;;;;;13.19;74.20;100649.13;4999794;28;20300;-80
2023/04/12 05:48:47;;;;;;;33.78;22.23;;;;;;;12.89;74.12;100595.22;4996097;28;20562;-81
2023/04/12 05:51:14;;;;;;;31.55;21.60;;;;;;;13.09;73.84;100616.41;4986634;28;20045;-82
2023/04/12 05:53:41;;;;;;;34.47;21.75;;;;;;;13.16;73.60;100628.94;4982735;28;20389;-82
2023/04/12 05:56:10;;;;;;;29.63;21.13;;;;;;;13.44;73.81;100659.03;4989431;28;20355;-85
2023/04/12 05:58:39;;;;;;;32.88;21.02;;;;;;;13.47;74.17;100663.22;4995615;28;20049;-85
2023/04/12 06:01:09;;;;;;;29.17;21.48;;;;;;;13.38;74.03;100643.69;4976354;28;20052;-81
2023/04/12 06:03:42;;;;;;;32.83;22.52;;;;;;;13.53;74.49;100665.28;4997773;28;20152;-79
2023/04/12 06:06:14;;;;;;;33.65;22.63;;;;;;;12.99;75.03;100585.31;5005594;28;20627;-80
2023/04/12 06:09:01;;;;;;;33.53;22.88;;;;;;;13.62;74.03;100655.53;5005095;28;20041;-80
2023/04/12 06:11:28;;;;;;;35.60;25.88;;;;;;;13.54;75.13;100653.63;4989832;28;20100;-80
2023/04/12 06:14:15;;;;;;;38.53;22.88;;;;;;;13.26;75.52;100624.38;4994436;28;20049;-79
2023/04/12 06:16:43;;;;;;;38.40;24.15;;;;;;;13.42;75.91;100652.19;5026852;28;20053;-80
2023/04/12 06:19:18;;;;;;;37.53;26.10;;;;;;;13.19;76.12;100606.47;5021676;28;20056;-80
2023/04/12 06:21:47;;;;;;;34.28;23.33;;;;;;;13.51;75.78;100647.78;4995249;28;20049;-80
2023/04/12 06:24:15;;;;;;;37.08;25.08;;;;;;;13.55;75.11;100633.16;4998153;28;20129;-79
2023/04/12 06:26:47;;;;;;;36.70;25.70;;;;;;;13.68;74.71;100652.25;4988069;28;20048;-80
2023/04/12 06:29:21;;;;;;;33.92;24.08;;;;;;;13.58;75.39;100647.00;5011749;28;20095;-78
2023/04/12 06:31:48;;;;;;;38.40;24.92;;;;;;;13.46;75.85;100624.22;5010027;28;20351;-77
2023/04/12 06:34:19;;;;;;;43.97;26.27;;;;;;;13.21;75.45;100569.84;5015191;28;20045;-78
2023/04/12 06:36:46;;;;;;;38.42;25.48;;;;;;;13.41;74.92;100603.34;4999363;28;20068;-78
2023/04/12 06:39:17;;;;;;;32.13;23.35;;;;;;;13.77;75.14;100643.31;5016318;28;20054;-81
2023/04/12 06:41:54;;;;;;;37.42;24.40;;;;;;;13.85;74.33;100630.00;5016099;28;20057;-79
2023/04/12 06:44:25;;;;;;;37.92;25.58;;;;;;;13.95;74.25;100635.25;5015332;28;20060;-78
2023/04/12 06:46:59;;;;;;;35.63;25.77;;;;;;;13.97;74.43;100632.44;5017275;28;20049;-78
2023/04/12 06:49:26;;;;;;;32.40;24.27;;;;;;;14.10;74.01;100632.81;5004236;28;20136;-78
2023/04/12 06:51:53;;;;;;;38.70;25.40;;;;;;;13.82;73.52;100566.28;5008063;28;20073;-78
2023/04/12 06:54:20;;;;;;;35.72;23.50;;;;;;;14.37;72.40;100628.28;5024215;28;20582;-81
2023/04/12 06:56:47;;;;;;;32.70;21.75;;;;;;;14.10;72.99;100601.66;5009810;28;20480;-80
2023/04/12 06:59:14;;;;;;;29.73;22.35;;;;;;;14.38;72.83;100625.47;5016913;28;20073;-78
2023/04/12 07:01:46;;;;;;;34.38;24.92;;;;;;;14.12;72.38;100593.47;5016512;28;20045;-81
2023/04/12 07:04:17;;;;;;;31.88;22.88;;;;;;;14.46;71.75;100611.28;4997027;28;20140;-80
2023/04/12 07:06:57;;;;;;;31.77;22.35;;;;;;;14.46;71.89;100611.28;4997546;28;20141;-81
2023/04/12 07:09:24;;;;;;;29.77;23.05;;;;;;;14.32;71.74;100572.69;5000777;28;20512;-79
2023/04/12 07:11:52;;;;;;;33.65;23.83;;;;;;;14.67;71.81;100619.75;5001274;28;20056;-81
2023/04/12 07:14:23;;;;;;;32.55;23.23;;;;;;;14.61;71.45;100585.69;5006869;28;20042;-85
2023/04/12 07:16:50;;;;;;;33.95;22.98;;;;;;;14.84;71.14;100604.59;5014176;28;20045;-79
2023/04/12 07:19:19;;;;;;;35.90;22.05;;;;;;;14.94;70.30;100586.56;5020588;28;20507;-80
2023/04/12 07:21:50;;;;;;;29.23;20.83;;;;;;;14.71;69.48;100554.31;5018763;28;20131;-81
2023/04/12 07:24:20;;;;;;;32.58;21.52;;;;;;;14.92;69.62;100591.22;5019147;28;20061;-80
2023/04/12 07:26:47;;;;;;;29.65;20.92;;;;;;;15.06;69.28;100626.34;5019946;28;20049;-79
2023/04/12 07:29:19;;;;;;;32.63;21.42;;;;;;;14.99;69.17;100586.06;5020604;28;20041;-81
2023/04/12 07:32:03;;;;;;;32.33;21.10;;;;;;;15.01;69.79;100586.75;5029043;28;20049;-80
2023/04/12 07:34:31;;;;;;;30.23;20.48;;;;;;;15.08;69.71;100590.44;5023078;28;20160;-80
2023/04/12 07:36:59;;;;;;;30.60;20.50;;;;;;;15.12;69.37;100597.13;5014502;28;20046;-79
2023/04/12 07:39:30;;;;;;;45.10;22.85;;;;;;;15.24;68.96;100602.13;4999948;28;20077;-81
2023/04/12 07:42:00;;;;;;;28.13;20.27;;;;;;;14.91;68.76;100557.50;5014313;28;20674;-78
2023/04/12 07:44:32;;;;;;;36.60;20.88;;;;;;;15.06;68.62;100581.72;5020680;28;20144;-79
2023/04/12 07:47:03;;;;;;;38.38;21.30;;;;;;;14.92;69.26;100555.66;5021697;28;20053;-79
2023/04/12 07:49:30;;;;;;;32.97;21.15;;;;;;;15.09;69.07;100575.22;5021059;28;20046;-82
2023/04/12 07:51:57;;;;;;;32.58;21.00;;;;;;;15.11;69.10;100578.56;5016728;28;20119;-79
2023/04/12 07:54:33;;;;;;;31.17;20.50;;;;;;;15.38;69.27;100628.22;5007980;28;20525;-79
2023/04/12 07:57:04;;;;;;;33.78;21.67;;;;;;;15.44;69.10;100629.38;5015053;28;20041;-79
2023/04/12 07:59:34;;;;;;;35.88;21.83;;;;;;;15.35;69.21;100615.16;5020437;28;20124;-81
2023/04/12 08:02:05;;;;;;;27.35;20.85;;;;;;;15.41;68.87;100619.84;5021475;28;20057;-82
2023/04/12 08:04:33;;;;;;;27.98;19.80;;;;;;;15.45;68.59;100623.03;5021887;28;20055;-83
2023/04/12 08:07:03;;;;;;;26.98;20.50;;;;;;;15.46;68.67;100646.94;5014991;28;20055;-81
2023/04/12 08:09:30;;;;;;;29.13;19.83;;;;;;;15.41;69.29;100656.47;5022014;28;20053;-83
2023/04/12 08:12:02;;;;;;;32.05;19.70;;;;;;;15.31;68.92;100646.75;5016944;28;20053;-82
2023/04/12 08:14:34;;;;;;;33.10;21.13;;;;;;;15.03;68.98;100590.09;5003524;28;20072;-81
2023/04/12 08:17:15;;;;;;;27.30;19.57;;;;;;;15.48;68.67;100654.78;5014525;28;20051;-81
2023/04/12 08:19:55;;;;;;;36.75;20.13;;;;;;;15.43;68.80;100647.25;5009414;28;20041;-80
2023/04/12 08:22:28;;;;;;;33.17;20.05;;;;;;;15.25;68.35;100638.56;5000307;28;20365;-82
2023/04/12 08:24:58;;;;;;;32.10;21.05;;;;;;;15.43;68.47;100662.47;5004651;28;20041;-83
2023/04/12 08:27:40;;;;;;;46.40;24.05;;;;;;;15.42;68.56;100653.63;5022278;28;20137;-86
2023/04/12 08:30:08;;;;;;;43.58;23.42;;;;;;;15.63;68.83;100679.88;5017709;28;20049;-90
2023/04/12 08:32:40;;;;;;;34.03;22.83;;;;;;;15.67;68.47;100691.09;5013894;28;20068;-81
2023/04/12 08:35:10;;;;;;;38.42;23.55;;;;;;;15.35;68.38;100631.22;4992431;28;20488;-83
2023/04/12 08:37:41;;;;;;;43.83;24.40;;;;;;;15.59;68.53;100668.69;4995235;28;20120;-82
2023/04/12 08:40:10;;;;;;;33.63;21.88;;;;;;;15.59;68.08;100662.50;4995028;28;20037;-80
2023/04/12 08:42:51;;;;;;;31.33;22.20;;;;;;;14.70;67.79;100517.88;4990619;28;20045;-82
2023/04/12 08:45:28;;;;;;;37.63;23.00;;;;;;;14.95;68.04;100571.34;4982052;28;20069;-82
2023/04/12 08:48:04;;;;;;;33.20;23.35;;;;;;;15.52;67.98;100677.53;4988446;28;20041;-82
2023/04/12 08:50:36;;;;;;;34.15;24.58;;;;;;;15.11;67.76;100579.38;4992939;28;20498;-83
2023/04/12 08:53:03;;;;;;;38.70;23.77;;;;;;;15.33;68.60;100618.00;4988529;28;20083;-83
2023/04/12 08:55:30;;;;;;;45.33;26.23;;;;;;;14.63;68.34;100489.31;4983608;28;20049;-82
2023/04/12 08:57:57;;;;;;;40.45;26.00;;;;;;;14.41;68.38;100440.84;4984241;28;20050;-84
2023/04/12 09:00:25;;;;;;;37.85;24.73;;;;;;;14.79;68.78;100502.69;4986737;28;20100;-85
2023/04/12 09:02:54;;;;;;;40.58;26.90;;;;;;;14.83;68.40;100493.34;4986315;28;20297;-82
2023/04/12 09:05:28;;;;;;;46.35;28.23;;;;;;;15.69;67.99;100627.53;4996733;28;20045;-85
2023/04/12 09:07:58;;;;;;;43.40;26.02;;;;;;;15.28;68.26;100574.06;5006314;28;20386;-82
2023/04/12 09:10:37;;;;;;;44.35;26.55;;;;;;;15.63;68.10;100620.16;5002380;28;20060;-83
2023/04/12 09:13:36;;;;;;;41.78;27.52;;;;;;;15.90;67.93;100664.50;4998220;28;20304;-84
2023/04/12 09:16:19;;;;;;;38.80;27.00;;;;;;;15.31;66.64;100525.56;4987985;28;20244;-82
2023/04/12 09:18:50;;;;;;;40.03;26.80;;;;;;;14.87;66.90;100459.09;4985814;28;20540;-84
2023/04/12 09:21:20;;;;;;;51.47;27.15;;;;;;;15.02;66.78;100478.78;4986219;28;20049;-82
2023/04/12 09:24:08;;;;;;;36.83;26.92;;;;;;;15.64;65.39;100562.97;4999026;28;20443;-84
2023/04/12 09:26:39;;;;;;;39.00;24.88;;;;;;;15.47;65.79;100525.53;4991911;28;20051;-83
2023/04/12 09:29:25;;;;;;;48.00;26.33;;;;;;;16.33;65.64;100660.53;5008242;28;20120;-79
2023/04/12 09:32:11;;;;;;;38.90;25.85;;;;;;;15.83;65.03;100577.88;5020462;28;20405;-81
2023/04/12 09:34:55;;;;;;;45.58;26.77;;;;;;;15.39;64.63;100512.19;5005105;28;20273;-81
2023/04/12 09:37:22;;;;;;;50.42;27.27;;;;;;;16.47;65.21;100668.88;5006137;28;20061;-76
2023/04/12 09:40:10;;;;;;;38.67;25.83;;;;;;;16.54;64.70;100656.47;4999859;28;20323;-80
2023/04/12 09:43:07;;;;;;;43.35;26.15;;;;;;;16.39;65.12;100622.34;4998444;28;20448;-79
2023/04/12 09:45:40;;;;;;;58.13;27.85;;;;;;;15.95;65.03;100515.75;4999438;28;20243;-82
2023/04/12 09:48:26;;;;;;;42.13;28.25;;;;;;;16.75;64.16;100616.50;5001991;28;20394;-80
2023/04/12 09:51:02;;;;;;;41.17;27.23;;;;;;;17.07;62.73;100625.38;5023164;28;20164;-80
2023/04/12 09:53:33;;;;;;;45.17;27.30;;;;;;;17.43;61.21;100630.97;5002708;28;20037;-81
2023/04/12 09:56:07;;;;;;;39.00;24.83;;;;;;;17.44;61.56;100629.09;4988369;28;20052;-79
2023/04/12 09:59:02;;;;;;;40.83;26.15;;;;;;;17.23;61.55;100570.75;4995250;28;20163;-83
2023/04/12 10:01:41;;;;;;;38.85;27.00;;;;;;;17.64;60.77;100619.50;4986013;28;20072;-78
2023/04/12 10:04:22;;;;;;;42.08;24.98;;;;;;;17.81;60.80;100630.13;4997813;28;20502;-79
2023/04/12 10:07:05;;;;;;;37.38;24.83;;;;;;;17.77;60.05;100610.00;4991110;28;20055;-78
2023/04/12 10:09:41;;;;;;;42.05;24.75;;;;;;;17.86;59.83;100588.28;4983827;28;20310;-79
2023/04/12 10:12:11;;;;;;;40.80;25.25;;;;;;;18.28;60.09;100619.06;4988467;28;20304;-80
2023/04/12 10:14:50;;;;;;;39.13;24.52;;;;;;;18.35;58.72;100621.84;4987179;28;20053;-81
2023/04/12 10:17:21;;;;;;;35.70;21.70;;;;;;;18.08;57.83;100559.69;5015599;28;20067;-80
2023/04/12 10:20:09;;;;;;;33.17;23.08;;;;;;;18.27;57.39;100585.13;4985561;28;20045;-81
2023/04/12 10:22:47;;;;;;;37.00;24.15;;;;;;;18.42;57.89;100606.59;4996561;28;20049;-82
2023/04/12 10:25:26;;;;;;;39.40;24.85;;;;;;;18.46;57.53;100605.22;4993730;28;20084;-79
2023/04/12 10:28:16;;;;;;;42.97;26.25;;;;;;;18.57;57.94;100614.66;4963961;28;20154;-83
2023/04/12 10:31:20;;;;;;;42.78;25.00;;;;;;;18.54;57.42;100570.19;4963381;28;20410;-82
2023/04/12 10:34:01;;;;;;;42.45;23.77;;;;;;;18.68;56.81;100591.81;4987990;28;20053;-81
2023/04/12 10:36:51;;;;;;;34.05;24.33;;;;;;;18.33;56.95;100544.06;4988286;28;20132;-80
2023/04/12 10:39:41;;;;;;;41.85;25.02;;;;;;;18.35;56.92;100543.91;4997395;28;20572;-81
2023/04/12 10:42:27;;;;;;;39.53;24.65;;;;;;;18.35;56.85;100533.16;4996862;28;20076;-80
2023/04/12 10:45:21;;;;;;;38.60;25.23;;;;;;;18.55;57.17;100571.81;5006566;28;20049;-80
2023/04/12 10:47:57;;;;;;;40.05;25.98;;;;;;;18.22;56.73;100517.69;5008125;28;20053;-79
2023/04/12 10:50:32;;;;;;;43.33;23.05;;;;;;;18.45;56.85;100576.69;4995382;28;20049;-81
2023/04/12 10:53:17;;;;;;;42.67;24.58;;;;;;;18.43;57.15;100578.72;5006943;28;20046;-80
2023/04/12 10:55:46;;;;;;;39.88;24.67;;;;;;;18.27;57.53;100568.16;5005022;28;20410;-80
2023/04/12 10:58:46;;;;;;;41.97;24.67;;;;;;;18.30;56.93;100573.16;5025060;28;20053;-82
2023/04/12 11:01:17;;;;;;;36.80;22.60;;;;;;;18.24;57.02;100549.75;5027758;28;20144;-79
2023/04/12 11:04:11;;;;;;;42.13;23.60;;;;;;;18.51;57.67;100564.31;5012670;28;20060;-80
2023/04/12 11:06:52;;;;;;;39.80;23.45;;;;;;;18.62;56.72;100541.47;5020237;28;20049;-81
2023/04/12 11:09:28;;;;;;;37.88;23.45;;;;;;;18.77;56.57;100553.91;5010536;28;20125;-81
2023/04/12 11:12:03;;;;;;;40.33;23.83;;;;;;;18.70;56.00;100503.72;5017303;28;20037;-83
2023/04/12 11:14:45;;;;;;;37.92;23.88;;;;;;;19.02;55.78;100555.38;5022019;28;20122;-81
2023/04/12 11:17:12;;;;;;;38.00;24.05;;;;;;;18.93;56.28;100547.44;4989471;28;20077;-77
2023/04/12 11:19:45;;;;;;;38.70;24.63;;;;;;;19.07;55.49;100545.69;4991878;28;20144;-82
2023/04/12 11:22:17;;;;;;;39.38;24.80;;;;;;;19.16;55.32;100538.31;5012473;28;20065;-82
2023/04/12 11:24:48;;;;;;;40.97;24.35;;;;;;;19.20;55.32;100523.47;4981248;28;20053;-82
2023/04/12 11:27:20;;;;;;;45.15;25.10;;;;;;;19.34;54.99;100535.97;4991361;28;20148;-81
2023/04/12 11:29:49;;;;;;;38.13;23.17;;;;;;;18.92;54.81;100454.31;5004790;28;20297;-81
2023/04/12 11:32:16;;;;;;;37.35;23.55;;;;;;;19.31;54.33;100490.59;4999581;28;20045;-80
2023/04/12 11:34:45;;;;;;;36.53;22.70;;;;;;;19.45;54.58;100523.03;5019449;28;20041;-82
2023/04/12 11:37:14;;;;;;;39.85;24.45;;;;;;;19.53;54.52;100528.25;5007477;28;20096;-81
2023/04/12 11:39:42;;;;;;;40.47;24.40;;;;;;;19.45;54.05;100512.25;5013160;28;20064;-80